Time;durP1;ratioP1;P1;durP2;ratioP2;P2;SDS_P1;SDS_P2;PMS_P1;PMS_P2;Temp;Humidity;BMP_temperature;BMP_pressure;BME280_temperature;BME280_humidity;BME280_pressure;Samples;Min_cycle;Max_cycle;Signal;HPM_P1;HPM_P2
2023/09/11 00:00:25;;;;;;;49.78;44.38;;;23.70;99.90;;;;;;5029715;28;20053;-59
2023/09/11 00:02:51;;;;;;;51.53;45.38;;;23.80;99.90;;;;;;5030326;28;20044;-60
2023/09/11 00:05:16;;;;;;;49.75;44.25;;;23.70;99.90;;;;;;5029863;28;20046;-60
2023/09/11 00:07:42;;;;;;;55.50;45.53;;;23.50;99.90;;;;;;5029615;28;20130;-60
2023/09/11 00:10:08;;;;;;;51.90;45.55;;;23.70;99.90;;;;;;5029731;28;20041;-60
2023/09/11 00:12:34;;;;;;;51.33;46.00;;;23.30;99.90;;;;;;5033762;28;20605;-60
2023/09/11 00:14:59;;;;;;;55.33;45.60;;;23.40;99.90;;;;;;5030337;28;20124;-60
2023/09/11 00:17:25;;;;;;;53.83;46.45;;;23.20;99.90;;;;;;5030107;28;20053;-60
2023/09/11 00:19:50;;;;;;;53.95;46.00;;;23.30;99.90;;;;;;5028612;28;20415;-60
2023/09/11 00:22:16;;;;;;;56.17;46.63;;;23.80;99.90;;;;;;5029932;28;20065;-60
2023/09/11 00:24:41;;;;;;;52.85;45.78;;;23.20;99.90;;;;;;5030121;28;20041;-60
2023/09/11 00:27:07;;;;;;;52.53;47.13;;;23.50;99.90;;;;;;5029823;28;20511;-60
2023/09/11 00:29:32;;;;;;;51.70;45.92;;;23.60;99.90;;;;;;5035900;28;20033;-60
2023/09/11 00:31:58;;;;;;;54.83;47.63;;;23.20;99.90;;;;;;5049404;28;20115;-60
2023/09/11 00:34:23;;;;;;;52.22;46.67;;;23.60;99.90;;;;;;5049607;28;20033;-60
2023/09/11 00:36:49;;;;;;;53.47;47.10;;;23.60;99.90;;;;;;5048092;28;20080;-60
2023/09/11 00:39:14;;;;;;;52.33;46.92;;;23.60;99.90;;;;;;5029941;28;20037;-60
2023/09/11 00:41:42;;;;;;;56.67;48.15;;;23.80;99.90;;;;;;5029619;28;20033;-60
2023/09/11 00:44:08;;;;;;;52.47;45.70;;;23.70;99.90;;;;;;5038250;28;20069;-60
2023/09/11 00:46:34;;;;;;;56.95;46.67;;;23.60;99.90;;;;;;5030431;28;20084;-59
2023/09/11 00:49:00;;;;;;;53.20;46.45;;;23.40;99.90;;;;;;5032274;28;20044;-60
2023/09/11 00:51:26;;;;;;;52.42;45.63;;;23.70;99.90;;;;;;5032088;28;20081;-59
2023/09/11 00:53:53;;;;;;;53.45;47.70;;;23.70;99.90;;;;;;5033401;28;20045;-60
2023/09/11 00:56:19;;;;;;;57.35;47.13;;;23.10;99.90;;;;;;5033209;28;20108;-60
2023/09/11 00:58:46;;;;;;;55.50;47.05;;;23.30;99.90;;;;;;5036976;28;20033;-57
2023/09/11 01:01:12;;;;;;;53.13;47.67;;;23.10;99.90;;;;;;5033552;28;20431;-57
2023/09/11 01:03:39;;;;;;;53.88;48.08;;;23.20;99.90;;;;;;5031725;28;20045;-58
2023/09/11 01:06:04;;;;;;;53.50;48.05;;;23.70;99.90;;;;;;5033290;28;20042;-57
2023/09/11 01:08:30;;;;;;;52.33;46.85;;;23.30;99.90;;;;;;5032854;28;20047;-57
2023/09/11 01:10:56;;;;;;;56.58;46.92;;;23.80;99.90;;;;;;5032851;28;20041;-57
2023/09/11 01:13:23;;;;;;;53.22;47.60;;;23.40;99.90;;;;;;5041616;28;20490;-57
2023/09/11 01:16:02;;;;;;;53.65;48.05;;;23.30;99.90;;;;;;5044739;28;20128;-58
2023/09/11 01:18:40;;;;;;;51.78;46.83;;;23.70;99.90;;;;;;5033659;28;20102;-58
2023/09/11 01:21:08;;;;;;;53.15;47.45;;;23.30;99.90;;;;;;5033029;28;20049;-58
2023/09/11 01:23:53;;;;;;;56.90;47.88;;;23.20;99.90;;;;;;5033015;28;20038;-58
2023/09/11 01:26:55;;;;;;;52.70;47.60;;;23.40;99.90;;;;;;5032495;28;20100;-57
2023/09/11 01:29:25;;;;;;;52.20;46.85;;;23.70;99.90;;;;;;5032532;28;20053;-57
2023/09/11 01:31:52;;;;;;;53.78;47.72;;;23.10;99.90;;;;;;5034273;28;20126;-57
2023/09/11 01:34:18;;;;;;;53.28;47.40;;;23.40;99.90;;;;;;5032771;28;20045;-58
2023/09/11 01:36:43;;;;;;;54.67;48.45;;;23.50;99.90;;;;;;5032543;28;20495;-58
2023/09/11 01:39:09;;;;;;;53.55;48.05;;;23.40;99.90;;;;;;5031192;28;20488;-57
2023/09/11 01:41:39;;;;;;;55.33;48.78;;;23.10;99.90;;;;;;5032435;28;20037;-57
2023/09/11 01:44:21;;;;;;;52.30;47.00;;;23.50;99.90;;;;;;5032566;28;20490;-58
2023/09/11 01:46:49;;;;;;;52.88;47.50;;;23.30;99.90;;;;;;5045722;28;20033;-59
2023/09/11 01:49:16;;;;;;;51.95;46.33;;;23.00;99.90;;;;;;5033908;28;20228;-59
2023/09/11 01:51:42;;;;;;;51.58;46.05;;;23.50;99.90;;;;;;5032318;28;20033;-57
2023/09/11 01:54:09;;;;;;;53.03;47.60;;;22.70;99.90;;;;;;5032264;28;20514;-57
2023/09/11 01:56:35;;;;;;;54.05;48.08;;;23.10;99.90;;;;;;5032248;28;20072;-58
2023/09/11 01:59:01;;;;;;;53.78;48.00;;;23.40;99.90;;;;;;5032173;28;20041;-57
2023/09/11 02:01:27;;;;;;;52.58;47.20;;;23.40;99.90;;;;;;5031935;28;20053;-57
2023/09/11 02:03:52;;;;;;;51.83;46.65;;;23.50;99.90;;;;;;5031032;28;20045;-57
2023/09/11 02:06:18;;;;;;;50.88;45.53;;;23.50;99.90;;;;;;5036996;28;20495;-57
2023/09/11 02:08:44;;;;;;;53.08;47.38;;;22.90;99.90;;;;;;5051995;28;20041;-62
2023/09/11 02:11:10;;;;;;;53.60;47.78;;;22.90;99.90;;;;;;5051834;28;20399;-63
2023/09/11 02:13:36;;;;;;;51.55;46.55;;;23.40;99.90;;;;;;5051957;28;20045;-63
2023/09/11 02:16:02;;;;;;;51.25;46.25;;;23.30;99.90;;;;;;5035344;28;20045;-63
2023/09/11 02:18:28;;;;;;;51.75;46.50;;;23.20;99.90;;;;;;5051660;28;20481;-63
2023/09/11 02:20:53;;;;;;;53.40;47.50;;;23.60;99.90;;;;;;5051414;28;20033;-62
2023/09/11 02:23:20;;;;;;;54.08;48.35;;;23.40;99.90;;;;;;5051681;28;20040;-63
2023/09/11 02:25:47;;;;;;;53.20;47.83;;;23.20;99.90;;;;;;5051460;28;20041;-63
2023/09/11 02:28:16;;;;;;;54.70;48.92;;;23.00;99.90;;;;;;5035775;28;20087;-62
2023/09/11 02:30:42;;;;;;;51.72;46.80;;;23.00;99.90;;;;;;5031340;28;20038;-63
2023/09/11 02:33:07;;;;;;;53.75;48.00;;;23.10;99.90;;;;;;5031889;28;20125;-63
2023/09/11 02:35:33;;;;;;;53.97;48.33;;;23.50;99.90;;;;;;5031233;28;20534;-63
2023/09/11 02:37:58;;;;;;;54.97;49.05;;;22.90;99.90;;;;;;5031258;28;20038;-62
2023/09/11 02:40:24;;;;;;;55.28;48.90;;;23.30;99.90;;;;;;5030942;28;20087;-64
2023/09/11 02:42:49;;;;;;;58.42;50.50;;;23.00;99.90;;;;;;5031148;28;20042;-63
2023/09/11 02:45:15;;;;;;;55.13;49.60;;;23.50;99.90;;;;;;5037215;28;20044;-63
2023/09/11 02:47:41;;;;;;;56.13;50.22;;;22.90;99.90;;;;;;5031128;28;20037;-63
2023/09/11 02:50:07;;;;;;;54.08;48.53;;;23.40;99.90;;;;;;5031262;28;20113;-62
2023/09/11 02:52:33;;;;;;;58.95;49.22;;;22.70;99.90;;;;;;5030987;28;20048;-63
2023/09/11 02:54:59;;;;;;;55.40;49.80;;;22.90;99.90;;;;;;5031232;28;20033;-63
2023/09/11 02:57:24;;;;;;;56.38;50.67;;;23.40;99.90;;;;;;5032374;28;20139;-62
2023/09/11 02:59:54;;;;;;;55.83;50.30;;;22.80;99.90;;;;;;5033009;28;20049;-63
2023/09/11 03:02:23;;;;;;;54.30;49.05;;;22.80;99.90;;;;;;5050490;28;20057;-60
2023/09/11 03:04:51;;;;;;;56.20;50.53;;;22.80;99.90;;;;;;5050767;28;20041;-63
2023/09/11 03:07:18;;;;;;;56.45;51.08;;;23.10;99.90;;;;;;5051114;28;20041;-62
2023/09/11 03:09:46;;;;;;;56.33;50.28;;;23.40;99.90;;;;;;5050312;28;20041;-62
2023/09/11 03:12:12;;;;;;;56.13;50.47;;;23.50;99.90;;;;;;5050768;28;20047;-62
2023/09/11 03:14:39;;;;;;;55.72;49.67;;;22.70;99.90;;;;;;5029571;28;20046;-62
2023/09/11 03:17:05;;;;;;;56.47;50.53;;;23.10;99.90;;;;;;5029276;28;20049;-63
2023/09/11 03:19:33;;;;;;;55.65;49.75;;;23.50;99.90;;;;;;5030611;28;20047;-58
2023/09/11 03:21:59;;;;;;;53.35;47.90;;;22.80;99.90;;;;;;5030365;28;20041;-59
2023/09/11 03:24:25;;;;;;;55.80;50.05;;;22.80;99.90;;;;;;5030710;28;20056;-58
2023/09/11 03:26:50;;;;;;;55.75;50.13;;;23.20;99.90;;;;;;5030469;28;20105;-58
2023/09/11 03:29:17;;;;;;;55.13;49.45;;;22.80;99.90;;;;;;5032417;28;20510;-57
2023/09/11 03:31:42;;;;;;;55.65;48.83;;;23.40;99.90;;;;;;5048274;28;20417;-58
2023/09/11 03:34:08;;;;;;;56.55;49.83;;;23.10;99.90;;;;;;5030388;28;20034;-57
2023/09/11 03:36:33;;;;;;;54.78;48.97;;;23.50;99.90;;;;;;5030386;28;20364;-57
2023/09/11 03:38:59;;;;;;;56.58;50.50;;;23.50;99.90;;;;;;5030502;28;20063;-58
2023/09/11 03:41:25;;;;;;;54.50;48.88;;;23.50;99.90;;;;;;5030206;28;20077;-57
2023/09/11 03:43:50;;;;;;;56.00;50.13;;;23.00;99.90;;;;;;5015163;28;20037;-56
2023/09/11 03:46:16;;;;;;;55.65;49.97;;;23.50;99.90;;;;;;5037487;28;20053;-58
2023/09/11 03:48:42;;;;;;;54.70;49.53;;;23.50;99.90;;;;;;5030252;28;20045;-57
2023/09/11 03:51:07;;;;;;;54.80;49.15;;;23.00;99.90;;;;;;5030031;28;20045;-58
2023/09/11 03:53:33;;;;;;;56.80;50.67;;;22.90;99.90;;;;;;5030538;28;20056;-57
2023/09/11 03:55:59;;;;;;;55.88;50.30;;;23.00;99.90;;;;;;5030082;28;20160;-58
2023/09/11 03:58:25;;;;;;;56.67;51.00;;;23.60;99.90;;;;;;5030101;28;20545;-59
2023/09/11 04:00:50;;;;;;;57.80;51.72;;;22.90;99.90;;;;;;5048481;28;20053;-59
2023/09/11 04:03:16;;;;;;;56.85;50.80;;;23.30;99.90;;;;;;5050139;28;20073;-57
2023/09/11 04:05:42;;;;;;;56.53;50.75;;;23.60;99.90;;;;;;5035413;28;20034;-57
2023/09/11 04:08:08;;;;;;;60.53;51.20;;;23.50;99.90;;;;;;5029957;28;20033;-57
2023/09/11 04:10:34;;;;;;;56.40;50.88;;;22.70;99.90;;;;;;5029916;28;20503;-58
2023/09/11 04:12:59;;;;;;;56.63;51.05;;;22.80;99.90;;;;;;5030026;28;20063;-56
2023/09/11 04:15:25;;;;;;;54.97;49.53;;;23.30;99.90;;;;;;5038247;28;20046;-58
2023/09/11 04:17:54;;;;;;;57.65;51.95;;;23.50;99.90;;;;;;5034602;28;20045;-57
2023/09/11 04:20:20;;;;;;;58.05;51.95;;;22.70;99.90;;;;;;5049658;28;20053;-59
2023/09/11 04:22:46;;;;;;;57.55;51.17;;;23.40;99.90;;;;;;5052574;28;20037;-56
2023/09/11 04:25:12;;;;;;;57.05;51.45;;;23.40;99.90;;;;;;5053967;28;20106;-59
2023/09/11 04:27:38;;;;;;;61.38;52.25;;;22.70;99.90;;;;;;5052606;28;20502;-58
2023/09/11 04:30:04;;;;;;;62.67;52.47;;;23.30;99.90;;;;;;5036421;28;20099;-59
2023/09/11 04:32:30;;;;;;;59.05;52.80;;;22.60;99.90;;;;;;5033694;28;20045;-60
2023/09/11 04:34:56;;;;;;;57.30;51.83;;;22.70;99.90;;;;;;5033571;28;20068;-59
2023/09/11 04:37:22;;;;;;;57.13;51.20;;;22.90;99.90;;;;;;5033506;28;20056;-59
2023/09/11 04:39:47;;;;;;;56.55;50.95;;;23.40;99.90;;;;;;5033407;28;20052;-59
2023/09/11 04:42:13;;;;;;;59.05;52.72;;;22.60;99.90;;;;;;5033236;28;20032;-60
2023/09/11 04:44:38;;;;;;;58.58;52.33;;;23.40;99.90;;;;;;5046040;28;20088;-60
2023/09/11 04:47:06;;;;;;;57.03;51.35;;;23.20;99.90;;;;;;5033302;28;20041;-60
2023/09/11 04:49:32;;;;;;;61.53;54.95;;;22.60;99.90;;;;;;5033655;28;20042;-60
2023/09/11 04:51:57;;;;;;;58.03;52.33;;;22.80;99.90;;;;;;5033381;28;20407;-60
2023/09/11 04:54:23;;;;;;;57.40;51.53;;;23.40;99.90;;;;;;5033310;28;20389;-61
2023/09/11 04:56:48;;;;;;;59.92;53.53;;;22.60;99.90;;;;;;5033175;28;20033;-62
2023/09/11 04:59:14;;;;;;;60.00;51.70;;;23.40;99.90;;;;;;5047338;28;20241;-61
2023/09/11 05:01:40;;;;;;;57.47;51.50;;;23.40;99.90;;;;;;5047559;28;20041;-61
2023/09/11 05:04:06;;;;;;;59.25;53.22;;;23.10;99.90;;;;;;5039596;28;20037;-61
2023/09/11 05:06:32;;;;;;;59.38;53.10;;;22.90;99.90;;;;;;5032134;28;20053;-61
2023/09/11 05:08:58;;;;;;;58.10;52.33;;;23.40;99.90;;;;;;5033229;28;20399;-61
2023/09/11 05:11:23;;;;;;;59.38;53.67;;;23.30;99.90;;;;;;5032848;28;20041;-61
2023/09/11 05:13:49;;;;;;;59.80;53.53;;;23.40;99.90;;;;;;5031864;28;20033;-61
2023/09/11 05:16:17;;;;;;;60.85;54.47;;;22.60;99.90;;;;;;5032627;28;20041;-62
2023/09/11 05:18:42;;;;;;;60.60;54.20;;;23.10;99.90;;;;;;5033396;28;20112;-61
2023/09/11 05:21:08;;;;;;;60.70;54.45;;;23.30;99.90;;;;;;5034807;28;20130;-61
2023/09/11 05:23:34;;;;;;;60.72;54.13;;;22.50;99.90;;;;;;5032806;28;20041;-62
2023/09/11 05:25:59;;;;;;;60.10;53.70;;;22.80;99.90;;;;;;5032580;28;20124;-62
2023/09/11 05:28:25;;;;;;;60.75;54.58;;;23.10;99.90;;;;;;5032685;28;20038;-62
2023/09/11 05:30:50;;;;;;;61.17;54.75;;;22.60;99.90;;;;;;5030264;28;20045;-61
2023/09/11 05:33:16;;;;;;;60.20;54.13;;;23.20;99.90;;;;;;5032107;28;20037;-61
2023/09/11 05:35:44;;;;;;;60.80;54.20;;;22.80;99.90;;;;;;5032460;28;20073;-61
2023/09/11 05:38:10;;;;;;;62.15;54.05;;;23.30;99.90;;;;;;5032718;28;20088;-59
2023/09/11 05:40:35;;;;;;;58.70;52.72;;;22.60;99.90;;;;;;5032093;28;20053;-64
2023/09/11 05:43:01;;;;;;;59.15;53.53;;;23.10;99.90;;;;;;5027431;28;20038;-64
2023/09/11 05:45:26;;;;;;;59.25;53.15;;;23.30;99.90;;;;;;5032346;28;20037;-65
2023/09/11 05:47:52;;;;;;;57.70;51.90;;;23.30;99.90;;;;;;5032354;28;20514;-65
2023/09/11 05:50:18;;;;;;;58.38;52.50;;;23.40;99.90;;;;;;5039545;28;20037;-62
2023/09/11 05:52:43;;;;;;;60.10;51.85;;;23.10;99.90;;;;;;5034167;28;20033;-62
2023/09/11 05:55:09;;;;;;;56.50;51.05;;;23.20;99.90;;;;;;5051092;28;20518;-62
2023/09/11 05:57:34;;;;;;;61.80;53.17;;;22.80;99.90;;;;;;5052138;28;20064;-62
2023/09/11 06:00:01;;;;;;;59.28;53.10;;;23.20;99.90;;;;;;5043241;28;20061;-62
2023/09/11 06:02:26;;;;;;;59.92;53.45;;;22.80;99.90;;;;;;5031907;28;20033;-62
2023/09/11 06:04:52;;;;;;;56.75;51.15;;;22.90;99.90;;;;;;5041395;28;20041;-62
2023/09/11 06:07:18;;;;;;;59.22;53.08;;;23.40;99.90;;;;;;5035326;28;20037;-62
2023/09/11 06:09:43;;;;;;;58.75;52.45;;;23.20;99.90;;;;;;5024103;28;20032;-62
2023/09/11 06:12:09;;;;;;;59.08;52.90;;;23.40;99.90;;;;;;5022232;28;20048;-62
2023/09/11 06:14:37;;;;;;;57.50;51.83;;;22.80;99.90;;;;;;5023650;28;20423;-62
2023/09/11 06:17:04;;;;;;;57.30;51.30;;;23.40;99.90;;;;;;5026994;28;20042;-62
2023/09/11 06:19:30;;;;;;;57.65;51.88;;;23.90;99.90;;;;;;5027997;28;20029;-62
2023/09/11 06:21:56;;;;;;;60.53;52.03;;;23.70;99.90;;;;;;5023306;28;20052;-62
2023/09/11 06:24:22;;;;;;;61.42;52.15;;;23.80;99.90;;;;;;5029994;28;20053;-63
2023/09/11 06:27:00;;;;;;;57.60;51.70;;;23.70;99.90;;;;;;5027871;28;20195;-62
2023/09/11 06:29:26;;;;;;;59.70;53.53;;;23.80;99.90;;;;;;5029573;28;20191;-62
2023/09/11 06:31:51;;;;;;;59.05;52.95;;;23.40;99.90;;;;;;5026049;28;20157;-62
2023/09/11 06:34:17;;;;;;;60.38;53.25;;;23.60;99.90;;;;;;5030887;28;20076;-62
2023/09/11 06:36:42;;;;;;;57.97;52.15;;;23.40;99.90;;;;;;5026417;28;20408;-62
2023/09/11 06:39:08;;;;;;;56.42;51.03;;;23.70;99.90;;;;;;5030476;28;20167;-62
2023/09/11 06:41:33;;;;;;;58.80;52.78;;;23.50;99.90;;;;;;5028719;28;20045;-62
2023/09/11 06:43:59;;;;;;;57.45;51.78;;;23.20;99.90;;;;;;5028098;28;20407;-62
2023/09/11 06:46:24;;;;;;;59.05;52.95;;;23.70;99.90;;;;;;5031473;28;20471;-62
2023/09/11 06:48:50;;;;;;;60.00;53.90;;;24.00;99.90;;;;;;5020905;28;20037;-62
2023/09/11 06:51:16;;;;;;;60.85;54.58;;;23.30;99.90;;;;;;5026828;28;20033;-62
2023/09/11 06:53:41;;;;;;;59.67;53.42;;;23.20;99.90;;;;;;5023479;28;20087;-62
2023/09/11 06:56:08;;;;;;;58.75;52.95;;;23.30;99.90;;;;;;5029428;28;20566;-62
2023/09/11 06:58:33;;;;;;;60.72;54.58;;;23.90;99.90;;;;;;5028644;28;20047;-65
2023/09/11 07:00:59;;;;;;;60.10;53.47;;;23.30;99.90;;;;;;5025076;28;20049;-65
2023/09/11 07:03:24;;;;;;;61.80;54.45;;;24.10;99.90;;;;;;5033961;28;20162;-65
2023/09/11 07:05:51;;;;;;;58.95;53.25;;;24.40;99.90;;;;;;5030111;28;20033;-65
2023/09/11 07:08:17;;;;;;;59.83;53.80;;;24.50;99.90;;;;;;5026910;28;20037;-65
2023/09/11 07:10:48;;;;;;;59.78;53.92;;;23.70;99.90;;;;;;5023599;28;20036;-65
2023/09/11 07:13:14;;;;;;;60.58;54.63;;;23.80;99.90;;;;;;5023031;28;20030;-65
2023/09/11 07:15:39;;;;;;;59.47;53.45;;;24.40;99.90;;;;;;5025227;28;20075;-65
2023/09/11 07:18:05;;;;;;;60.58;54.20;;;24.20;99.90;;;;;;5027504;28;20122;-65
2023/09/11 07:20:30;;;;;;;60.45;54.30;;;24.80;99.90;;;;;;5029135;28;20049;-65
2023/09/11 07:22:56;;;;;;;60.13;53.83;;;25.20;99.90;;;;;;5024027;28;20037;-64
2023/09/11 07:25:22;;;;;;;58.60;52.78;;;24.90;99.90;;;;;;5027218;28;20044;-65
2023/09/11 07:27:49;;;;;;;60.47;54.17;;;24.70;99.90;;;;;;5021718;28;20485;-65
2023/09/11 07:30:14;;;;;;;55.72;50.33;;;24.80;99.90;;;;;;5027518;28;20286;-65
2023/09/11 07:32:40;;;;;;;56.50;50.53;;;25.70;99.90;;;;;;5020458;28;20388;-63
2023/09/11 07:35:06;;;;;;;58.47;52.97;;;25.50;99.90;;;;;;5018802;28;20061;-65
2023/09/11 07:37:32;;;;;;;56.35;50.67;;;26.00;99.90;;;;;;5004553;28;20079;-65
2023/09/11 07:39:57;;;;;;;53.85;48.25;;;25.30;99.90;;;;;;5019145;28;20079;-64
2023/09/11 07:42:23;;;;;;;56.95;51.58;;;26.20;99.90;;;;;;5016870;28;20045;-65
2023/09/11 07:44:49;;;;;;;57.00;51.42;;;25.60;99.90;;;;;;5018382;28;20130;-65
2023/09/11 07:47:14;;;;;;;55.60;49.53;;;26.30;99.90;;;;;;5015536;28;20045;-64
2023/09/11 07:49:40;;;;;;;56.88;51.22;;;26.10;99.90;;;;;;5014602;28;20033;-65
2023/09/11 07:52:05;;;;;;;51.78;46.22;;;26.20;99.90;;;;;;5013543;28;20056;-64
2023/09/11 07:54:32;;;;;;;50.92;45.72;;;26.70;99.90;;;;;;5018044;28;20047;-64
2023/09/11 07:56:57;;;;;;;47.90;43.17;;;26.90;99.90;;;;;;5018207;28;20140;-63
2023/09/11 07:59:23;;;;;;;42.67;38.40;;;27.30;99.90;;;;;;5017971;28;20132;-64
2023/09/11 08:01:48;;;;;;;36.17;32.33;;;27.60;99.90;;;;;;5018380;28;20403;-65
2023/09/11 08:04:14;;;;;;;32.03;28.88;;;27.60;99.90;;;;;;5015939;28;20041;-64
2023/09/11 08:06:39;;;;;;;31.17;26.42;;;27.80;99.90;;;;;;5016552;28;20033;-64
2023/09/11 08:09:05;;;;;;;31.67;27.73;;;28.10;99.90;;;;;;5016903;28;20503;-63
2023/09/11 08:11:34;;;;;;;34.90;29.10;;;28.20;99.90;;;;;;5021556;28;20076;-63
2023/09/11 08:14:00;;;;;;;36.25;32.42;;;28.40;99.90;;;;;;5019556;28;20053;-63
2023/09/11 08:16:26;;;;;;;37.83;31.52;;;28.60;99.90;;;;;;5017234;28;20407;-63
2023/09/11 08:18:51;;;;;;;32.25;28.80;;;28.60;1.00;;;;;;5017599;28;20049;-63
2023/09/11 08:21:19;;;;;;;30.63;27.45;;;28.60;99.90;;;;;;5018666;28;20156;-63
2023/09/11 08:23:45;;;;;;;32.97;28.70;;;28.60;1.00;;;;;;5019638;28;20045;-63
2023/09/11 08:26:11;;;;;;;33.85;28.48;;;28.70;39.50;;;;;;5018004;28;20043;-63
2023/09/11 08:28:37;;;;;;;35.88;28.80;;;28.60;99.90;;;;;;5021485;28;20034;-63
2023/09/11 08:31:03;;;;;;;37.05;31.88;;;28.60;99.90;;;;;;5017580;28;20072;-63
2023/09/11 08:33:29;;;;;;;32.10;28.83;;;28.70;99.90;;;;;;5020013;28;20136;-63
2023/09/11 08:35:55;;;;;;;33.10;29.67;;;28.70;85.70;;;;;;5012772;28;20419;-63
2023/09/11 08:38:21;;;;;;;35.30;31.40;;;28.80;14.00;;;;;;5016381;28;20041;-63
2023/09/11 08:40:46;;;;;;;38.70;31.27;;;28.70;1.00;;;;;;5017906;28;20408;-63
2023/09/11 08:43:12;;;;;;;40.13;35.88;;;29.00;1.00;;;;;;5016064;28;20041;-65
2023/09/11 08:45:38;;;;;;;41.72;35.70;;;29.10;1.00;;;;;;5013258;28;20037;-63
2023/09/11 08:48:09;;;;;;;41.95;36.00;;;29.20;1.00;;;;;;5013370;28;20072;-63
2023/09/11 08:50:39;;;;;;;35.05;31.15;;;29.40;1.00;;;;;;5017602;28;20052;-63
2023/09/11 08:53:04;;;;;;;37.95;34.17;;;29.70;99.90;;;;;;5014811;28;20081;-63
2023/09/11 08:55:33;;;;;;;41.33;33.05;;;29.90;99.90;;;;;;5015232;28;20137;-63
2023/09/11 08:58:02;;;;;;;35.17;31.48;;;30.00;99.90;;;;;;5017675;28;20120;-63
2023/09/11 09:00:28;;;;;;;37.67;30.90;;;30.20;61.50;;;;;;5019991;28;20419;-67
2023/09/11 09:02:54;;;;;;;34.70;27.55;;;30.50;1.00;;;;;;5016821;28;20038;-63
2023/09/11 09:05:20;;;;;;;35.05;30.63;;;30.70;1.00;;;;;;4999498;28;20037;-63
2023/09/11 09:07:47;;;;;;;38.30;29.35;;;30.90;99.90;;;;;;5002886;28;20037;-63
2023/09/11 09:10:13;;;;;;;31.77;28.45;;;31.00;99.90;;;;;;5019153;28;20127;-64
2023/09/11 09:12:39;;;;;;;33.10;27.80;;;30.90;99.90;;;;;;5023343;28;20065;-63
2023/09/11 09:15:06;;;;;;;34.08;26.70;;;30.90;99.90;;;;;;5018586;28;20415;-63
2023/09/11 09:17:32;;;;;;;35.17;30.27;;;31.00;99.90;;;;;;5020532;28;20064;-63
2023/09/11 09:19:57;;;;;;;33.13;29.67;;;31.20;92.90;;;;;;5023803;28;20152;-65
2023/09/11 09:22:23;;;;;;;31.63;28.27;;;31.20;59.80;;;;;;5020952;28;20877;-65
2023/09/11 09:24:53;;;;;;;34.05;30.35;;;31.20;42.50;;;;;;5020042;28;20083;-63
2023/09/11 09:27:20;;;;;;;33.75;30.15;;;31.20;9.60;;;;;;5016660;28;20110;-64
2023/09/11 09:29:48;;;;;;;36.33;32.47;;;31.20;1.00;;;;;;5021911;28;20833;-65
2023/09/11 09:32:14;;;;;;;34.33;29.50;;;31.20;1.00;;;;;;5019767;28;20752;-65
2023/09/11 09:34:51;;;;;;;40.67;32.85;;;31.30;1.00;;;;;;5020539;28;20124;-65
2023/09/11 09:37:18;;;;;;;34.03;29.85;;;31.30;1.00;;;;;;5022244;28;20119;-65
2023/09/11 09:39:45;;;;;;;34.75;31.13;;;31.40;1.00;;;;;;5020464;28;20048;-65
2023/09/11 09:42:12;;;;;;;35.17;27.10;;;31.40;1.00;;;;;;5022354;28;20368;-65
2023/09/11 09:44:43;;;;;;;30.33;27.10;;;31.50;1.00;;;;;;5019775;28;20049;-65
2023/09/11 09:47:18;;;;;;;34.03;30.27;;;31.70;1.00;;;;;;5015050;28;20037;-64
2023/09/11 09:49:57;;;;;;;41.40;37.17;;;31.80;1.00;;;;;;5018944;28;20033;-65
2023/09/11 09:52:28;;;;;;;55.35;49.30;;;31.90;1.00;;;;;;5021437;28;20041;-65
2023/09/11 09:55:02;;;;;;;62.58;55.20;;;32.00;1.00;;;;;;5016148;28;20498;-64
2023/09/11 09:57:28;;;;;;;73.95;61.40;;;31.90;1.00;;;;;;5019991;28;20038;-65
2023/09/11 09:59:59;;;;;;;87.28;75.03;;;31.70;1.00;;;;;;5016463;28;20053;-65
2023/09/11 10:02:26;;;;;;;80.45;71.75;;;31.60;1.00;;;;;;5022759;28;20053;-65
2023/09/11 10:04:53;;;;;;;102.60;90.78;;;31.70;1.00;;;;;;5029631;28;20052;-65
2023/09/11 10:07:38;;;;;;;90.72;81.22;;;31.90;1.00;;;;;;5022500;28;20037;-65
2023/09/11 10:10:24;;;;;;;113.90;102.00;;;32.00;99.90;;;;;;5025109;28;20482;-65
2023/09/11 10:13:03;;;;;;;99.57;90.80;;;32.30;99.90;;;;;;5030744;28;20055;-65
2023/09/11 10:15:30;;;;;;;30.48;27.08;;;32.30;99.90;;;;;;5024331;28;20072;-64
2023/09/11 10:17:57;;;;;;;49.10;45.25;;;32.30;99.90;;;;;;5029817;28;20076;-65
2023/09/11 10:20:24;;;;;;;15.07;13.13;;;32.60;99.90;;;;;;5019987;28;20041;-64
2023/09/11 10:22:54;;;;;;;15.07;8.50;;;32.60;99.90;;;;;;5020273;28;20119;-65
2023/09/11 10:25:22;;;;;;;17.48;9.10;;;32.70;99.90;;;;;;5020243;28;20188;-64
2023/09/11 10:27:50;;;;;;;23.17;13.57;;;32.80;99.90;;;;;;5020274;28;20084;-64
2023/09/11 10:30:21;;;;;;;25.65;22.83;;;32.70;99.90;;;;;;5023953;28;20388;-64
2023/09/11 10:32:57;;;;;;;12.55;7.75;;;32.50;99.90;;;;;;5020463;28;20168;-64
2023/09/11 10:35:25;;;;;;;11.38;7.05;;;32.20;99.90;;;;;;5022631;28;20073;-65
2023/09/11 10:37:56;;;;;;;17.67;8.70;;;32.20;99.90;;;;;;5019357;28;20049;-63
2023/09/11 10:40:27;;;;;;;15.80;7.07;;;32.30;99.90;;;;;;5015050;28;20080;-62
2023/09/11 10:42:53;;;;;;;12.38;8.85;;;32.30;99.90;;;;;;5017244;28;20713;-63
2023/09/11 10:45:28;;;;;;;13.93;7.63;;;32.40;99.90;;;;;;5021500;28;20046;-63
2023/09/11 10:47:53;;;;;;;11.55;8.32;;;32.20;99.90;;;;;;5019125;28;20064;-63
2023/09/11 10:50:22;;;;;;;19.85;15.05;;;32.10;99.90;;;;;;5016255;28;20154;-63
2023/09/11 10:52:48;;;;;;;14.48;10.80;;;32.20;99.90;;;;;;5019050;28;20049;-62
2023/09/11 10:55:15;;;;;;;13.95;9.93;;;32.30;99.90;;;;;;5018476;28;20086;-62
2023/09/11 10:57:40;;;;;;;16.23;12.57;;;32.30;99.90;;;;;;5018574;28;20057;-60
2023/09/11 11:00:09;;;;;;;13.80;11.18;;;32.30;99.90;;;;;;5022146;28;20175;-60
2023/09/11 11:02:35;;;;;;;25.90;20.77;;;32.30;99.90;;;;;;5023509;28;20940;-60
2023/09/11 11:05:00;;;;;;;30.17;27.33;;;32.30;99.90;;;;;;5022310;28;20091;-62
2023/09/11 11:07:28;;;;;;;25.38;23.08;;;32.00;99.90;;;;;;5018078;28;20107;-61
2023/09/11 11:09:53;;;;;;;43.78;39.97;;;31.20;99.90;;;;;;5018498;28;20092;-61
2023/09/11 11:12:32;;;;;;;30.13;27.30;;;30.30;99.90;;;;;;5020891;28;20029;-61
2023/09/11 11:15:34;;;;;;;32.70;29.92;;;29.30;99.90;;;;;;5022861;28;20056;-61
2023/09/11 11:18:10;;;;;;;94.35;87.10;;;28.70;99.90;;;;;;5000079;28;20161;-61
2023/09/11 11:20:37;;;;;;;103.20;94.72;;;28.30;1.00;;;;;;5017763;28;20045;-61
2023/09/11 11:23:09;;;;;;;111.75;102.72;;;28.20;1.00;;;;;;5020424;28;20029;-61
2023/09/11 11:25:35;;;;;;;113.68;103.35;;;27.90;1.00;;;;;;5022583;28;20459;-61
2023/09/11 11:28:07;;;;;;;112.03;100.93;;;27.70;84.00;;;;;;5018769;28;20083;-61
2023/09/11 11:30:35;;;;;;;119.22;107.20;;;27.50;99.90;;;;;;5014216;28;20045;-61
2023/09/11 11:33:03;;;;;;;101.95;91.68;;;27.40;99.90;;;;;;5020711;28;20077;-61
2023/09/11 11:35:29;;;;;;;94.35;84.43;;;27.50;99.90;;;;;;5026950;28;20045;-61
2023/09/11 11:37:55;;;;;;;83.03;74.55;;;27.50;1.00;;;;;;5028473;28;20624;-61
2023/09/11 11:40:21;;;;;;;81.07;72.80;;;27.50;1.00;;;;;;5025906;28;20051;-59
2023/09/11 11:42:47;;;;;;;87.28;78.32;;;27.60;1.00;;;;;;5026494;28;20041;-61
2023/09/11 11:45:13;;;;;;;86.18;77.25;;;27.60;1.00;;;;;;5028853;28;20104;-59
2023/09/11 11:47:40;;;;;;;74.15;66.50;;;27.50;1.00;;;;;;5028985;28;20044;-60
2023/09/11 11:50:12;;;;;;;79.53;71.38;;;27.50;1.00;;;;;;5024669;28;20223;-61
2023/09/11 11:52:38;;;;;;;76.07;68.45;;;27.50;1.00;;;;;;5026115;28;20033;-59
2023/09/11 11:55:20;;;;;;;74.93;67.22;;;27.40;1.00;;;;;;5023619;28;20040;-59
2023/09/11 11:57:50;;;;;;;92.07;82.68;;;27.40;1.00;;;;;;5022445;28;20487;-59
2023/09/11 12:00:16;;;;;;;75.57;67.80;;;26.90;1.00;;;;;;5025464;28;20426;-59
2023/09/11 12:02:41;;;;;;;66.50;59.38;;;26.80;99.90;;;;;;5031118;28;20112;-59
2023/09/11 12:05:14;;;;;;;60.42;54.17;;;26.90;99.90;;;;;;5028027;28;20037;-59
2023/09/11 12:07:41;;;;;;;58.85;52.80;;;27.20;99.90;;;;;;5026395;28;20068;-61
2023/09/11 12:10:10;;;;;;;57.83;52.03;;;27.30;99.90;;;;;;5024774;28;20471;-60
2023/09/11 12:12:42;;;;;;;54.67;49.17;;;27.30;99.90;;;;;;5021456;28;20045;-61
2023/09/11 12:15:09;;;;;;;53.38;47.63;;;27.50;99.90;;;;;;5026807;28;20042;-59
2023/09/11 12:17:35;;;;;;;56.03;50.03;;;27.50;99.90;;;;;;5023272;28;20132;-60
2023/09/11 12:20:15;;;;;;;58.80;52.50;;;27.50;99.90;;;;;;5020928;28;20128;-59
2023/09/11 12:22:43;;;;;;;62.70;55.97;;;27.20;99.90;;;;;;5016469;28;20480;-59
2023/09/11 12:25:08;;;;;;;60.45;54.03;;;27.00;99.90;;;;;;5022594;28;20038;-60
2023/09/11 12:27:35;;;;;;;58.50;52.58;;;27.20;1.00;;;;;;5023178;28;20817;-60